sensor_id;sensor_type;location;lat;lon;timestamp;pressure;altitude;pressure_sealevel;temperature;humidity
10348;BME280;5220;43.192;23.284;2023-04-04T00:01:56;95655.13;;;11.52;100.00
10348;BME280;5220;43.192;23.284;2023-04-04T00:04:25;95659.25;;;11.72;100.00
10348;BME280;5220;43.192;23.284;2023-04-04T00:06:51;95655.53;;;11.75;100.00
10348;BME280;5220;43.192;23.284;2023-04-04T00:09:19;95656.34;;;11.75;100.00
10348;BME280;5220;43.192;23.284;2023-04-04T00:11:46;95650.78;;;11.70;100.00
10348;BME280;5220;43.192;23.284;2023-04-04T00:14:13;95645.94;;;11.58;100.00
10348;BME280;5220;43.192;23.284;2023-04-04T00:16:40;95640.94;;;11.64;100.00
10348;BME280;5220;43.192;23.284;2023-04-04T00:19:06;95640.19;;;11.54;100.00
10348;BME280;5220;43.192;23.284;2023-04-04T00:21:35;95636.84;;;11.26;100.00
10348;BME280;5220;43.192;23.284;2023-04-04T00:24:02;95638.50;;;11.45;100.00
10348;BME280;5220;43.192;23.284;2023-04-04T00:26:30;95639.72;;;11.06;100.00
10348;BME280;5220;43.192;23.284;2023-04-04T00:28:57;95640.81;;;10.86;100.00
10348;BME280;5220;43.192;23.284;2023-04-04T00:31:24;95634.47;;;10.70;100.00
10348;BME280;5220;43.192;23.284;2023-04-04T00:33:51;95634.97;;;10.47;100.00
10348;BME280;5220;43.192;23.284;2023-04-04T00:36:18;95634.25;;;10.54;100.00
10348;BME280;5220;43.192;23.284;2023-04-04T00:38:45;95634.19;;;10.73;100.00
10348;BME280;5220;43.192;23.284;2023-04-04T00:41:11;95633.09;;;10.66;100.00
10348;BME280;5220;43.192;23.284;2023-04-04T00:43:39;95630.94;;;10.89;100.00
10348;BME280;5220;43.192;23.284;2023-04-04T00:46:07;95616.59;;;11.03;100.00
10348;BME280;5220;43.192;23.284;2023-04-04T00:48:35;95621.31;;;11.17;100.00
10348;BME280;5220;43.192;23.284;2023-04-04T00:51:02;95620.53;;;11.24;100.00
10348;BME280;5220;43.192;23.284;2023-04-04T00:53:28;95621.28;;;11.34;100.00
10348;BME280;5220;43.192;23.284;2023-04-04T00:55:56;95610.94;;;11.43;100.00
10348;BME280;5220;43.192;23.284;2023-04-04T00:58:23;95604.34;;;11.48;100.00
10348;BME280;5220;43.192;23.284;2023-04-04T01:00:52;95605.81;;;11.51;100.00
10348;BME280;5220;43.192;23.284;2023-04-04T01:03:19;95600.66;;;11.59;100.00
10348;BME280;5220;43.192;23.284;2023-04-04T01:05:46;95600.22;;;11.63;100.00
10348;BME280;5220;43.192;23.284;2023-04-04T01:08:15;95599.34;;;11.55;100.00
10348;BME280;5220;43.192;23.284;2023-04-04T01:10:44;95592.72;;;11.60;100.00
10348;BME280;5220;43.192;23.284;2023-04-04T01:13:11;95594.22;;;11.45;100.00
10348;BME280;5220;43.192;23.284;2023-04-04T01:15:38;95596.44;;;11.40;100.00
10348;BME280;5220;43.192;23.284;2023-04-04T01:18:08;95592.94;;;11.49;100.00
10348;BME280;5220;43.192;23.284;2023-04-04T01:20:43;95601.13;;;11.54;100.00
10348;BME280;5220;43.192;23.284;2023-04-04T01:23:13;95603.22;;;11.51;100.00
10348;BME280;5220;43.192;23.284;2023-04-04T01:25:41;95597.09;;;11.60;100.00
10348;BME280;5220;43.192;23.284;2023-04-04T01:28:08;95595.97;;;11.62;100.00
10348;BME280;5220;43.192;23.284;2023-04-04T01:30:36;95590.94;;;11.61;100.00
10348;BME280;5220;43.192;23.284;2023-04-04T01:33:09;95595.97;;;11.62;100.00
10348;BME280;5220;43.192;23.284;2023-04-04T01:35:43;95594.84;;;11.65;100.00
10348;BME280;5220;43.192;23.284;2023-04-04T01:38:20;95597.19;;;11.50;100.00
10348;BME280;5220;43.192;23.284;2023-04-04T01:40:55;95604.75;;;11.61;100.00
10348;BME280;5220;43.192;23.284;2023-04-04T01:43:23;95604.47;;;11.64;100.00
10348;BME280;5220;43.192;23.284;2023-04-04T01:45:50;95601.41;;;11.69;100.00
10348;BME280;5220;43.192;23.284;2023-04-04T01:48:16;95600.56;;;11.68;100.00
10348;BME280;5220;43.192;23.284;2023-04-04T01:50:43;95605.53;;;11.54;100.00
10348;BME280;5220;43.192;23.284;2023-04-04T01:53:10;95605.25;;;11.39;100.00
10348;BME280;5220;43.192;23.284;2023-04-04T01:55:37;95609.84;;;10.65;100.00
10348;BME280;5220;43.192;23.284;2023-04-04T01:58:05;95606.84;;;10.33;100.00
10348;BME280;5220;43.192;23.284;2023-04-04T02:00:32;95599.75;;;10.25;100.00
10348;BME280;5220;43.192;23.284;2023-04-04T02:02:59;95611.03;;;10.43;100.00
10348;BME280;5220;43.192;23.284;2023-04-04T02:05:25;95597.53;;;10.67;100.00
10348;BME280;5220;43.192;23.284;2023-04-04T02:07:52;95597.38;;;10.68;100.00
10348;BME280;5220;43.192;23.284;2023-04-04T02:10:19;95601.25;;;10.82;100.00
10348;BME280;5220;43.192;23.284;2023-04-04T02:12:46;95600.59;;;10.53;100.00
10348;BME280;5220;43.192;23.284;2023-04-04T02:15:14;95606.00;;;10.69;100.00
10348;BME280;5220;43.192;23.284;2023-04-04T02:17:46;95609.78;;;10.74;100.00
10348;BME280;5220;43.192;23.284;2023-04-04T02:20:12;95611.38;;;10.85;100.00
10348;BME280;5220;43.192;23.284;2023-04-04T02:22:39;95622.75;;;10.57;100.00
10348;BME280;5220;43.192;23.284;2023-04-04T02:25:07;95624.81;;;10.26;100.00
10348;BME280;5220;43.192;23.284;2023-04-04T02:27:33;95634.91;;;9.63;100.00
10348;BME280;5220;43.192;23.284;2023-04-04T02:30:00;95622.47;;;9.38;100.00
10348;BME280;5220;43.192;23.284;2023-04-04T02:32:28;95624.66;;;9.33;100.00
10348;BME280;5220;43.192;23.284;2023-04-04T02:34:55;95631.34;;;9.55;100.00
10348;BME280;5220;43.192;23.284;2023-04-04T02:37:21;95631.88;;;9.10;100.00
10348;BME280;5220;43.192;23.284;2023-04-04T02:39:48;95635.16;;;8.93;100.00
10348;BME280;5220;43.192;23.284;2023-04-04T02:42:15;95638.69;;;8.83;100.00
10348;BME280;5220;43.192;23.284;2023-04-04T02:44:41;95652.50;;;8.93;100.00
10348;BME280;5220;43.192;23.284;2023-04-04T02:47:08;95645.09;;;8.88;100.00
10348;BME280;5220;43.192;23.284;2023-04-04T02:49:36;95655.22;;;9.01;100.00
10348;BME280;5220;43.192;23.284;2023-04-04T02:52:03;95656.69;;;8.94;100.00
10348;BME280;5220;43.192;23.284;2023-04-04T02:54:32;95646.06;;;8.97;100.00
10348;BME280;5220;43.192;23.284;2023-04-04T02:56:59;95653.28;;;8.44;100.00
10348;BME280;5220;43.192;23.284;2023-04-04T02:59:26;95656.91;;;8.62;100.00
10348;BME280;5220;43.192;23.284;2023-04-04T03:01:53;95668.72;;;8.45;100.00
10348;BME280;5220;43.192;23.284;2023-04-04T03:04:19;95674.38;;;8.70;100.00
10348;BME280;5220;43.192;23.284;2023-04-04T03:06:47;95674.19;;;8.52;100.00
10348;BME280;5220;43.192;23.284;2023-04-04T03:09:14;95675.34;;;8.69;100.00
10348;BME280;5220;43.192;23.284;2023-04-04T03:11:41;95684.59;;;8.61;100.00
10348;BME280;5220;43.192;23.284;2023-04-04T03:14:08;95692.56;;;8.39;100.00
10348;BME280;5220;43.192;23.284;2023-04-04T03:16:35;95692.06;;;8.04;100.00
10348;BME280;5220;43.192;23.284;2023-04-04T03:19:02;95684.47;;;7.71;100.00
10348;BME280;5220;43.192;23.284;2023-04-04T03:21:29;95687.53;;;7.96;100.00
10348;BME280;5220;43.192;23.284;2023-04-04T03:23:57;95694.97;;;7.90;100.00
10348;BME280;5220;43.192;23.284;2023-04-04T03:26:24;95699.31;;;7.69;100.00
10348;BME280;5220;43.192;23.284;2023-04-04T03:28:52;95693.44;;;7.67;100.00
10348;BME280;5220;43.192;23.284;2023-04-04T03:31:19;95697.31;;;7.93;100.00
10348;BME280;5220;43.192;23.284;2023-04-04T03:33:46;95699.94;;;7.82;100.00
10348;BME280;5220;43.192;23.284;2023-04-04T03:36:13;95705.94;;;7.82;100.00
10348;BME280;5220;43.192;23.284;2023-04-04T03:38:40;95705.69;;;7.85;100.00
10348;BME280;5220;43.192;23.284;2023-04-04T03:41:09;95707.66;;;7.93;100.00
10348;BME280;5220;43.192;23.284;2023-04-04T03:43:36;95713.47;;;7.53;100.00
10348;BME280;5220;43.192;23.284;2023-04-04T03:46:03;95712.47;;;7.45;100.00
10348;BME280;5220;43.192;23.284;2023-04-04T03:48:31;95713.28;;;7.45;100.00
10348;BME280;5220;43.192;23.284;2023-04-04T03:50:59;95715.22;;;7.64;100.00
10348;BME280;5220;43.192;23.284;2023-04-04T03:53:27;95722.97;;;7.64;100.00
10348;BME280;5220;43.192;23.284;2023-04-04T03:55:55;95731.06;;;7.71;100.00
10348;BME280;5220;43.192;23.284;2023-04-04T03:58:23;95741.78;;;7.66;100.00
10348;BME280;5220;43.192;23.284;2023-04-04T04:00:52;95727.06;;;7.67;100.00
10348;BME280;5220;43.192;23.284;2023-04-04T04:03:19;95744.91;;;7.81;100.00
10348;BME280;5220;43.192;23.284;2023-04-04T04:05:46;95736.44;;;7.79;100.00
10348;BME280;5220;43.192;23.284;2023-04-04T04:08:13;95743.00;;;7.62;100.00
10348;BME280;5220;43.192;23.284;2023-04-04T04:10:40;95741.69;;;7.56;100.00
10348;BME280;5220;43.192;23.284;2023-04-04T04:13:06;95741.78;;;7.66;100.00
10348;BME280;5220;43.192;23.284;2023-04-04T04:15:34;95751.75;;;7.50;100.00
10348;BME280;5220;43.192;23.284;2023-04-04T04:18:01;95751.59;;;7.51;100.00
10348;BME280;5220;43.192;23.284;2023-04-04T04:20:28;95760.09;;;7.42;100.00
10348;BME280;5220;43.192;23.284;2023-04-04T04:22:55;95756.69;;;7.53;100.00
10348;BME280;5220;43.192;23.284;2023-04-04T04:25:22;95755.63;;;7.44;100.00
10348;BME280;5220;43.192;23.284;2023-04-04T04:27:49;95755.78;;;7.64;100.00
10348;BME280;5220;43.192;23.284;2023-04-04T04:30:15;95763.72;;;7.83;100.00
10348;BME280;5220;43.192;23.284;2023-04-04T04:32:43;95772.25;;;7.74;100.00
10348;BME280;5220;43.192;23.284;2023-04-04T04:35:10;95768.59;;;7.33;100.00
10348;BME280;5220;43.192;23.284;2023-04-04T04:37:37;95777.09;;;7.24;100.00
10348;BME280;5220;43.192;23.284;2023-04-04T04:40:05;95768.09;;;7.39;100.00
10348;BME280;5220;43.192;23.284;2023-04-04T04:42:33;95767.81;;;7.53;100.00
10348;BME280;5220;43.192;23.284;2023-04-04T04:45:00;95770.31;;;7.55;100.00
10348;BME280;5220;43.192;23.284;2023-04-04T04:47:29;95783.31;;;7.65;100.00
10348;BME280;5220;43.192;23.284;2023-04-04T04:49:57;95783.28;;;7.76;100.00
10348;BME280;5220;43.192;23.284;2023-04-04T04:52:24;95787.47;;;7.88;100.00
10348;BME280;5220;43.192;23.284;2023-04-04T04:54:51;95792.78;;;8.07;100.00
10348;BME280;5220;43.192;23.284;2023-04-04T04:57:20;95807.88;;;7.81;100.00
10348;BME280;5220;43.192;23.284;2023-04-04T04:59:47;95809.34;;;7.95;100.00
10348;BME280;5220;43.192;23.284;2023-04-04T05:02:14;95818.84;;;8.05;100.00
10348;BME280;5220;43.192;23.284;2023-04-04T05:04:41;95819.66;;;8.06;100.00
10348;BME280;5220;43.192;23.284;2023-04-04T05:07:10;95827.69;;;8.03;100.00
10348;BME280;5220;43.192;23.284;2023-04-04T05:09:37;95821.84;;;7.79;100.00
10348;BME280;5220;43.192;23.284;2023-04-04T05:12:04;95824.75;;;7.65;100.00
10348;BME280;5220;43.192;23.284;2023-04-04T05:14:31;95827.56;;;7.62;100.00
10348;BME280;5220;43.192;23.284;2023-04-04T05:16:57;95835.59;;;7.47;100.00
10348;BME280;5220;43.192;23.284;2023-04-04T05:19:24;95835.22;;;7.52;100.00
10348;BME280;5220;43.192;23.284;2023-04-04T05:21:52;95842.31;;;7.82;100.00
10348;BME280;5220;43.192;23.284;2023-04-04T05:24:20;95839.38;;;7.86;100.00
10348;BME280;5220;43.192;23.284;2023-04-04T05:26:48;95838.84;;;7.61;100.00
10348;BME280;5220;43.192;23.284;2023-04-04T05:29:15;95843.25;;;7.38;100.00
10348;BME280;5220;43.192;23.284;2023-04-04T05:31:42;95839.13;;;7.89;100.00
10348;BME280;5220;43.192;23.284;2023-04-04T05:34:09;95840.97;;;7.67;100.00
10348;BME280;5220;43.192;23.284;2023-04-04T05:36:35;95849.13;;;7.94;100.00
10348;BME280;5220;43.192;23.284;2023-04-04T05:39:03;95851.25;;;7.89;100.00
10348;BME280;5220;43.192;23.284;2023-04-04T05:41:31;95848.53;;;8.22;100.00
10348;BME280;5220;43.192;23.284;2023-04-04T05:43:58;95853.03;;;8.31;100.00
10348;BME280;5220;43.192;23.284;2023-04-04T05:46:25;95853.97;;;8.19;100.00
10348;BME280;5220;43.192;23.284;2023-04-04T05:48:52;95859.72;;;7.91;100.00
10348;BME280;5220;43.192;23.284;2023-04-04T05:51:19;95862.19;;;7.92;100.00
10348;BME280;5220;43.192;23.284;2023-04-04T05:53:46;95862.28;;;8.02;100.00
10348;BME280;5220;43.192;23.284;2023-04-04T05:56:13;95861.25;;;7.93;100.00
10348;BME280;5220;43.192;23.284;2023-04-04T05:58:41;95863.03;;;7.93;100.00
10348;BME280;5220;43.192;23.284;2023-04-04T06:01:09;95867.75;;;7.77;100.00
10348;BME280;5220;43.192;23.284;2023-04-04T06:03:37;95867.19;;;7.73;100.00
10348;BME280;5220;43.192;23.284;2023-04-04T06:06:04;95870.88;;;8.02;100.00
10348;BME280;5220;43.192;23.284;2023-04-04T06:08:31;95871.34;;;8.39;100.00
10348;BME280;5220;43.192;23.284;2023-04-04T06:10:58;95877.09;;;8.43;100.00
10348;BME280;5220;43.192;23.284;2023-04-04T06:13:24;95875.38;;;8.32;100.00
10348;BME280;5220;43.192;23.284;2023-04-04T06:15:53;95874.84;;;8.49;100.00
10348;BME280;5220;43.192;23.284;2023-04-04T06:18:19;95884.56;;;8.25;100.00
10348;BME280;5220;43.192;23.284;2023-04-04T06:20:46;95883.81;;;8.45;100.00
10348;BME280;5220;43.192;23.284;2023-04-04T06:23:15;95886.31;;;8.36;100.00
10348;BME280;5220;43.192;23.284;2023-04-04T06:25:42;95885.63;;;8.54;100.00
10348;BME280;5220;43.192;23.284;2023-04-04T06:28:09;95887.59;;;8.41;100.00
10348;BME280;5220;43.192;23.284;2023-04-04T06:30:40;95890.81;;;8.54;100.00
10348;BME280;5220;43.192;23.284;2023-04-04T06:33:08;95892.50;;;8.44;100.00
10348;BME280;5220;43.192;23.284;2023-04-04T06:35:36;95896.41;;;8.71;100.00
10348;BME280;5220;43.192;23.284;2023-04-04T06:38:02;95895.94;;;8.45;100.00
10348;BME280;5220;43.192;23.284;2023-04-04T06:40:30;95900.94;;;8.57;100.00
10348;BME280;5220;43.192;23.284;2023-04-04T06:42:56;95900.50;;;8.52;100.00
10348;BME280;5220;43.192;23.284;2023-04-04T06:45:23;95911.50;;;7.91;100.00
10348;BME280;5220;43.192;23.284;2023-04-04T06:47:51;95907.47;;;8.09;100.00
10348;BME280;5220;43.192;23.284;2023-04-04T06:50:20;95905.16;;;8.27;100.00
10348;BME280;5220;43.192;23.284;2023-04-04T06:52:48;95912.72;;;8.30;100.00
10348;BME280;5220;43.192;23.284;2023-04-04T06:55:15;95919.31;;;7.80;100.00
10348;BME280;5220;43.192;23.284;2023-04-04T06:57:42;95917.50;;;7.91;100.00
10348;BME280;5220;43.192;23.284;2023-04-04T07:00:10;95920.56;;;7.85;100.00
10348;BME280;5220;43.192;23.284;2023-04-04T07:02:37;95918.38;;;7.81;100.00
10348;BME280;5220;43.192;23.284;2023-04-04T07:05:05;95922.00;;;8.32;100.00
10348;BME280;5220;43.192;23.284;2023-04-04T07:07:33;95934.03;;;8.22;100.00
10348;BME280;5220;43.192;23.284;2023-04-04T07:10:00;95929.63;;;8.45;100.00
10348;BME280;5220;43.192;23.284;2023-04-04T07:12:27;95933.97;;;8.13;100.00
10348;BME280;5220;43.192;23.284;2023-04-04T07:14:54;95936.38;;;8.25;100.00
10348;BME280;5220;43.192;23.284;2023-04-04T07:17:20;95944.03;;;8.27;100.00
10348;BME280;5220;43.192;23.284;2023-04-04T07:19:47;95944.72;;;7.97;100.00
10348;BME280;5220;43.192;23.284;2023-04-04T07:22:14;95951.16;;;8.02;100.00
10348;BME280;5220;43.192;23.284;2023-04-04T07:24:42;95952.38;;;7.87;100.00
10348;BME280;5220;43.192;23.284;2023-04-04T07:27:09;95963.09;;;8.26;100.00
10348;BME280;5220;43.192;23.284;2023-04-04T07:29:39;95957.56;;;8.41;100.00
10348;BME280;5220;43.192;23.284;2023-04-04T07:32:06;95955.03;;;8.51;100.00
10348;BME280;5220;43.192;23.284;2023-04-04T07:34:33;95959.25;;;8.31;100.00
10348;BME280;5220;43.192;23.284;2023-04-04T07:37:00;95964.09;;;8.56;100.00
10348;BME280;5220;43.192;23.284;2023-04-04T07:39:26;95973.59;;;8.35;100.00
10348;BME280;5220;43.192;23.284;2023-04-04T07:41:54;95973.84;;;8.64;100.00
10348;BME280;5220;43.192;23.284;2023-04-04T07:44:21;95976.59;;;8.83;100.00
10348;BME280;5220;43.192;23.284;2023-04-04T07:46:48;95982.16;;;8.47;100.00
10348;BME280;5220;43.192;23.284;2023-04-04T07:49:15;95983.69;;;8.49;100.00
10348;BME280;5220;43.192;23.284;2023-04-04T07:51:41;95981.59;;;8.43;100.00
10348;BME280;5220;43.192;23.284;2023-04-04T07:54:09;95983.81;;;8.48;100.00
10348;BME280;5220;43.192;23.284;2023-04-04T07:56:36;95983.69;;;8.49;100.00
10348;BME280;5220;43.192;23.284;2023-04-04T07:59:04;95988.25;;;8.57;100.00
10348;BME280;5220;43.192;23.284;2023-04-04T08:01:31;95985.06;;;8.53;100.00
10348;BME280;5220;43.192;23.284;2023-04-04T08:03:57;95994.16;;;8.48;100.00
10348;BME280;5220;43.192;23.284;2023-04-04T08:06:24;95993.16;;;8.71;100.00
10348;BME280;5220;43.192;23.284;2023-04-04T08:08:51;96001.13;;;8.25;100.00
10348;BME280;5220;43.192;23.284;2023-04-04T08:11:18;96002.22;;;8.34;100.00
10348;BME280;5220;43.192;23.284;2023-04-04T08:13:45;95999.75;;;8.21;100.00
10348;BME280;5220;43.192;23.284;2023-04-04T08:16:13;95998.56;;;8.36;100.00
10348;BME280;5220;43.192;23.284;2023-04-04T08:18:40;96001.66;;;8.30;100.00
10348;BME280;5220;43.192;23.284;2023-04-04T08:21:07;95996.69;;;8.16;100.00
10348;BME280;5220;43.192;23.284;2023-04-04T08:23:34;96000.19;;;8.48;100.00
10348;BME280;5220;43.192;23.284;2023-04-04T08:26:00;96007.84;;;8.50;100.00
10348;BME280;5220;43.192;23.284;2023-04-04T08:28:27;96017.91;;;8.64;100.00
10348;BME280;5220;43.192;23.284;2023-04-04T08:30:54;96008.00;;;8.69;100.00
10348;BME280;5220;43.192;23.284;2023-04-04T08:33:22;96013.84;;;9.03;100.00
10348;BME280;5220;43.192;23.284;2023-04-04T08:35:49;96021.38;;;8.85;100.00
10348;BME280;5220;43.192;23.284;2023-04-04T08:38:16;96016.69;;;9.00;100.00
10348;BME280;5220;43.192;23.284;2023-04-04T08:40:45;96028.97;;;8.98;100.00
10348;BME280;5220;43.192;23.284;2023-04-04T08:43:13;96029.16;;;8.85;100.00
10348;BME280;5220;43.192;23.284;2023-04-04T08:45:42;96029.13;;;9.17;100.00
10348;BME280;5220;43.192;23.284;2023-04-04T08:48:10;96033.09;;;9.00;100.00
10348;BME280;5220;43.192;23.284;2023-04-04T08:50:41;96038.66;;;8.96;100.00
10348;BME280;5220;43.192;23.284;2023-04-04T08:53:08;96035.41;;;9.14;100.00
10348;BME280;5220;43.192;23.284;2023-04-04T08:55:36;96030.34;;;9.34;100.00
10348;BME280;5220;43.192;23.284;2023-04-04T08:58:03;96048.66;;;9.00;100.00
10348;BME280;5220;43.192;23.284;2023-04-04T09:00:29;96036.06;;;9.28;100.00
10348;BME280;5220;43.192;23.284;2023-04-04T09:03:02;96044.00;;;9.15;100.00
10348;BME280;5220;43.192;23.284;2023-04-04T09:05:30;96049.72;;;9.09;100.00
10348;BME280;5220;43.192;23.284;2023-04-04T09:08:00;96054.81;;;9.20;100.00
10348;BME280;5220;43.192;23.284;2023-04-04T09:10:26;96058.75;;;9.14;100.00
10348;BME280;5220;43.192;23.284;2023-04-04T09:12:55;96062.19;;;9.15;100.00
10348;BME280;5220;43.192;23.284;2023-04-04T09:15:22;96062.69;;;9.09;100.00
10348;BME280;5220;43.192;23.284;2023-04-04T09:17:48;96055.25;;;9.04;100.00
10348;BME280;5220;43.192;23.284;2023-04-04T09:20:34;96061.19;;;8.52;100.00
10348;BME280;5220;43.192;23.284;2023-04-04T09:23:03;96059.75;;;9.02;100.00
10348;BME280;5220;43.192;23.284;2023-04-04T09:25:30;96070.25;;;9.01;100.00
10348;BME280;5220;43.192;23.284;2023-04-04T09:27:57;96069.72;;;9.18;100.00
10348;BME280;5220;43.192;23.284;2023-04-04T09:30:26;96073.75;;;9.32;100.00
10348;BME280;5220;43.192;23.284;2023-04-04T09:32:52;96078.13;;;9.31;100.00
10348;BME280;5220;43.192;23.284;2023-04-04T09:35:20;96075.41;;;9.12;100.00
10348;BME280;5220;43.192;23.284;2023-04-04T09:37:47;96085.56;;;8.61;100.00
10348;BME280;5220;43.192;23.284;2023-04-04T09:40:15;96084.94;;;8.80;100.00
10348;BME280;5220;43.192;23.284;2023-04-04T09:42:42;96079.84;;;8.46;100.00
10348;BME280;5220;43.192;23.284;2023-04-04T09:45:09;96084.31;;;8.33;100.00
10348;BME280;5220;43.192;23.284;2023-04-04T09:47:39;96073.44;;;8.50;100.00
10348;BME280;5220;43.192;23.284;2023-04-04T09:50:07;96083.00;;;8.93;100.00
10348;BME280;5220;43.192;23.284;2023-04-04T09:52:34;96088.25;;;8.71;100.00
10348;BME280;5220;43.192;23.284;2023-04-04T09:55:02;96086.06;;;8.98;100.00
10348;BME280;5220;43.192;23.284;2023-04-04T09:57:32;96089.81;;;9.05;100.00
10348;BME280;5220;43.192;23.284;2023-04-04T10:00:02;96093.88;;;8.76;100.00
10348;BME280;5220;43.192;23.284;2023-04-04T10:02:31;96094.41;;;8.47;100.00
10348;BME280;5220;43.192;23.284;2023-04-04T10:05:00;96096.97;;;8.70;100.00
10348;BME280;5220;43.192;23.284;2023-04-04T10:07:28;96092.47;;;8.83;100.00
10348;BME280;5220;43.192;23.284;2023-04-04T10:09:55;96106.22;;;8.40;100.00
10348;BME280;5220;43.192;23.284;2023-04-04T10:12:23;96104.75;;;8.70;100.00
10348;BME280;5220;43.192;23.284;2023-04-04T10:14:56;96103.41;;;8.43;100.00
10348;BME280;5220;43.192;23.284;2023-04-04T10:17:23;96103.03;;;8.91;100.00
10348;BME280;5220;43.192;23.284;2023-04-04T10:19:51;96104.25;;;8.76;100.00
10348;BME280;5220;43.192;23.284;2023-04-04T10:22:19;96114.91;;;8.61;100.00
10348;BME280;5220;43.192;23.284;2023-04-04T10:24:46;96119.63;;;8.68;100.00
10348;BME280;5220;43.192;23.284;2023-04-04T10:27:13;96128.03;;;8.92;100.00
10348;BME280;5220;43.192;23.284;2023-04-04T10:29:40;96119.91;;;8.96;100.00
10348;BME280;5220;43.192;23.284;2023-04-04T10:32:11;96129.22;;;8.88;100.00
10348;BME280;5220;43.192;23.284;2023-04-04T10:34:48;96131.00;;;8.87;100.00
10348;BME280;5220;43.192;23.284;2023-04-04T10:37:23;96137.63;;;8.69;100.00
10348;BME280;5220;43.192;23.284;2023-04-04T10:39:57;96140.31;;;8.90;100.00
10348;BME280;5220;43.192;23.284;2023-04-04T10:42:31;96133.16;;;8.71;100.00
10348;BME280;5220;43.192;23.284;2023-04-04T10:44:59;96131.91;;;8.43;100.00
10348;BME280;5220;43.192;23.284;2023-04-04T10:47:28;96135.50;;;8.63;100.00
10348;BME280;5220;43.192;23.284;2023-04-04T10:49:56;96146.22;;;8.70;100.00
10348;BME280;5220;43.192;23.284;2023-04-04T10:52:25;96144.81;;;8.77;100.00
10348;BME280;5220;43.192;23.284;2023-04-04T10:54:55;96141.75;;;8.83;100.00
10348;BME280;5220;43.192;23.284;2023-04-04T10:57:23;96153.78;;;8.73;100.00
10348;BME280;5220;43.192;23.284;2023-04-04T10:59:57;96137.94;;;8.98;100.00
10348;BME280;5220;43.192;23.284;2023-04-04T11:02:47;96148.16;;;9.10;100.00
10348;BME280;5220;43.192;23.284;2023-04-04T11:05:19;96154.44;;;8.97;100.00
10348;BME280;5220;43.192;23.284;2023-04-04T11:07:49;96153.28;;;8.90;100.00
10348;BME280;5220;43.192;23.284;2023-04-04T11:10:21;96152.91;;;8.94;100.00
10348;BME280;5220;43.192;23.284;2023-04-04T11:12:51;96164.25;;;8.82;100.00
10348;BME280;5220;43.192;23.284;2023-04-04T11:15:20;96167.75;;;9.03;100.00
10348;BME280;5220;43.192;23.284;2023-04-04T11:17:54;96155.59;;;9.04;100.00
10348;BME280;5220;43.192;23.284;2023-04-04T11:20:23;96173.75;;;9.15;100.00
10348;BME280;5220;43.192;23.284;2023-04-04T11:23:01;96170.00;;;8.97;100.00
10348;BME280;5220;43.192;23.284;2023-04-04T11:25:33;96165.88;;;9.05;100.00
10348;BME280;5220;43.192;23.284;2023-04-04T11:28:05;96181.19;;;8.97;100.00
10348;BME280;5220;43.192;23.284;2023-04-04T11:30:40;96181.78;;;9.01;100.00
10348;BME280;5220;43.192;23.284;2023-04-04T11:33:24;96171.94;;;9.15;100.00
10348;BME280;5220;43.192;23.284;2023-04-04T11:35:52;96173.31;;;8.99;100.00
10348;BME280;5220;43.192;23.284;2023-04-04T11:38:19;96177.34;;;8.47;100.00
10348;BME280;5220;43.192;23.284;2023-04-04T11:40:52;96180.44;;;8.75;100.00
10348;BME280;5220;43.192;23.284;2023-04-04T11:43:20;96177.59;;;8.33;100.00
10348;BME280;5220;43.192;23.284;2023-04-04T11:45:48;96177.59;;;8.33;100.00
10348;BME280;5220;43.192;23.284;2023-04-04T11:48:18;96178.81;;;7.94;100.00
10348;BME280;5220;43.192;23.284;2023-04-04T11:50:46;96181.75;;;8.01;100.00
10348;BME280;5220;43.192;23.284;2023-04-04T11:53:15;96172.13;;;8.14;100.00
10348;BME280;5220;43.192;23.284;2023-04-04T11:55:43;96170.66;;;8.45;100.00
10348;BME280;5220;43.192;23.284;2023-04-04T11:58:15;96175.59;;;8.48;100.00
10348;BME280;5220;43.192;23.284;2023-04-04T12:00:42;96175.78;;;8.23;100.00
10348;BME280;5220;43.192;23.284;2023-04-04T12:03:11;96162.16;;;8.32;100.00
10348;BME280;5220;43.192;23.284;2023-04-04T12:05:41;96179.25;;;8.68;100.00
10348;BME280;5220;43.192;23.284;2023-04-04T12:08:10;96180.50;;;8.84;100.00
10348;BME280;5220;43.192;23.284;2023-04-04T12:10:38;96184.16;;;8.82;100.00
10348;BME280;5220;43.192;23.284;2023-04-04T12:13:06;96179.34;;;8.66;100.00
10348;BME280;5220;43.192;23.284;2023-04-04T12:15:34;96188.63;;;8.91;100.00
10348;BME280;5220;43.192;23.284;2023-04-04T12:18:01;96173.44;;;8.75;100.00
10348;BME280;5220;43.192;23.284;2023-04-04T12:20:28;96179.81;;;8.60;100.00
10348;BME280;5220;43.192;23.284;2023-04-04T12:22:58;96172.66;;;8.52;100.00
10348;BME280;5220;43.192;23.284;2023-04-04T12:25:25;96179.94;;;8.47;100.00
10348;BME280;5220;43.192;23.284;2023-04-04T12:27:58;96179.94;;;8.47;100.00
10348;BME280;5220;43.192;23.284;2023-04-04T12:30:26;96176.31;;;8.39;100.00
10348;BME280;5220;43.192;23.284;2023-04-04T12:32:53;96171.72;;;8.64;100.00
10348;BME280;5220;43.192;23.284;2023-04-04T12:35:20;96185.13;;;8.36;100.00
10348;BME280;5220;43.192;23.284;2023-04-04T12:38:02;96184.94;;;7.93;100.00
10348;BME280;5220;43.192;23.284;2023-04-04T12:40:34;96186.75;;;8.26;100.00
10348;BME280;5220;43.192;23.284;2023-04-04T12:43:05;96182.31;;;8.61;100.00
10348;BME280;5220;43.192;23.284;2023-04-04T12:45:35;96192.44;;;7.85;100.00
10348;BME280;5220;43.192;23.284;2023-04-04T12:48:09;96192.31;;;8.33;100.00
10348;BME280;5220;43.192;23.284;2023-04-04T12:50:49;96191.78;;;8.17;100.00
10348;BME280;5220;43.192;23.284;2023-04-04T12:53:20;96202.75;;;8.20;100.00
10348;BME280;5220;43.192;23.284;2023-04-04T12:55:48;96208.09;;;8.30;100.00
10348;BME280;5220;43.192;23.284;2023-04-04T12:58:15;96211.03;;;8.47;100.00
10348;BME280;5220;43.192;23.284;2023-04-04T13:00:43;96208.81;;;8.43;100.00
10348;BME280;5220;43.192;23.284;2023-04-04T13:03:11;96207.88;;;8.55;100.00